Private Wetterstation Wechselburg
Wetterdaten: Donnerstag, 30.12.2021
Datum Zeit Temp. +2m Bodentemp. Temp.+5cm Temp. Wind Windchill X Diff Temp. Feuchte +2m Feuchte +5cm Luftdruck Regen Wind Richtung Richtung Sonnenschein Taupunkt Windchill Windben
30.12.2021 00:00 7,2 C 8,7 C 6,3 C 7,1 C 6,8 C 0,0 C 88 % 95 % 1011,3 hPa 0,0 l/m 4,5 km/h (1 Bft) SO 135 0 min 5,3 C 6,8 C 4,5 km/h (1 Bft)
30.12.2021 00:05 7,2 C 8,8 C 6,2 C 7,2 C 7,1 C 0,0 C 88 % 95 % 1011,3 hPa 0,0 l/m 3,1 km/h (1 Bft) S 180 0 min 5,3 C 7,1 C 3,1 km/h (1 Bft)
30.12.2021 00:10 7,1 C 8,8 C 6,2 C 7,1 C 7,1 C 0,0 C 88 % 95 % 1011,6 hPa 0,0 l/m 2,6 km/h (1 Bft) SW 225 0 min 5,2 C 7,1 C 2,7 km/h (1 Bft)
30.12.2021 00:15 7,1 C 8,9 C 6,2 C 7,1 C 7,1 C 0,0 C 88 % 95 % 1011,6 hPa 0,0 l/m 2,4 km/h (1 Bft) S-SW 202 0 min 5,2 C 7,1 C 5,8 km/h (2 Bft)
30.12.2021 00:20 7,1 C 8,9 C 6,1 C 7,1 C 7,1 C 0,0 C 88 % 95 % 1011,6 hPa 0,0 l/m 2,7 km/h (1 Bft) S 180 0 min 5,2 C 7,1 C 4,7 km/h (1 Bft)
30.12.2021 00:25 7,1 C 8,9 C 6,1 C 7,1 C 7,1 C 0,0 C 88 % 95 % 1011,6 hPa 0,0 l/m 2,6 km/h (1 Bft) S 180 0 min 5,2 C 7,1 C 3,1 km/h (1 Bft)
30.12.2021 00:30 7,0 C 8,9 C 6,1 C 7,1 C 7,1 C 0,1 C 88 % 95 % 1011,0 hPa 0,0 l/m 2,6 km/h (1 Bft) S 180 0 min 5,2 C 7,1 C 3,2 km/h (1 Bft)
30.12.2021 00:35 7,1 C 8,9 C 6,2 C 7,2 C 7,2 C 0,1 C 88 % 95 % 1011,0 hPa 0,0 l/m 2,4 km/h (1 Bft) S-SO 157 0 min 5,2 C 7,2 C 2,1 km/h (1 Bft)
30.12.2021 00:40 7,1 C 9,0 C 6,2 C 7,2 C 7,2 C 0,1 C 88 % 95 % 1011,0 hPa 0,7 l/m 1,4 km/h (1 Bft) SW 225 0 min 5,2 C 7,2 C 2,3 km/h (1 Bft)
30.12.2021 00:45 6,9 C 9,0 C 6,2 C 7,2 C 7,2 C 0,3 C 89 % 95 % 1011,0 hPa 0,0 l/m 0,5 km/h (0 Bft) S-SO 157 0 min 5,2 C 7,2 C 0,0 km/h (0 Bft)
30.12.2021 00:50 6,9 C 9,0 C 6,2 C 7,1 C 7,1 C 0,2 C 88 % 95 % 1011,1 hPa 0,0 l/m 0,5 km/h (0 Bft) S-SO 157 0 min 5,1 C 7,1 C 1,8 km/h (1 Bft)
30.12.2021 00:55 6,9 C 9,0 C 6,3 C 7,2 C 7,2 C 0,3 C 89 % 95 % 1011,1 hPa 0,0 l/m 0,8 km/h (0 Bft) S 180 0 min 5,2 C 7,2 C 2,6 km/h (1 Bft)
30.12.2021 01:00 6,9 C 9,0 C 6,3 C 7,3 C 7,3 C 0,4 C 89 % 95 % 1011,1 hPa 0,0 l/m 1,1 km/h (1 Bft) S 180 0 min 5,2 C 7,3 C 4,2 km/h (1 Bft)
30.12.2021 01:05 6,9 C 9,0 C 6,4 C 7,3 C 7,3 C 0,4 C 89 % 95 % 1011,1 hPa 0,0 l/m 2,3 km/h (1 Bft) S-SO 157 0 min 5,2 C 7,3 C 7,9 km/h (2 Bft)
30.12.2021 01:10 6,9 C 9,0 C 6,4 C 7,4 C 7,4 C 0,5 C 89 % 95 % 1010,9 hPa 0,0 l/m 2,7 km/h (1 Bft) S-SO 157 0 min 5,2 C 7,4 C 3,9 km/h (1 Bft)
30.12.2021 01:15 7,1 C 9,0 C 6,4 C 7,5 C 7,5 C 0,4 C 89 % 95 % 1010,9 hPa 0,0 l/m 3,1 km/h (1 Bft) S 180 0 min 5,4 C 7,5 C 8,0 km/h (2 Bft)
30.12.2021 01:20 7,0 C 9,0 C 6,5 C 7,3 C 7,3 C 0,3 C 89 % 95 % 1010,9 hPa 0,0 l/m 3,9 km/h (1 Bft) SO 135 0 min 5,3 C 7,3 C 5,8 km/h (2 Bft)
30.12.2021 01:25 7,1 C 9,0 C 6,6 C 7,5 C 7,5 C 0,4 C 89 % 95 % 1010,9 hPa 0,0 l/m 3,9 km/h (1 Bft) S-SW 202 0 min 5,4 C 7,5 C 9,0 km/h (2 Bft)
30.12.2021 01:30 7,0 C 9,0 C 6,7 C 7,7 C 7,7 C 0,7 C 89 % 95 % 1011,1 hPa 0,0 l/m 3,5 km/h (1 Bft) S 180 0 min 5,3 C 7,7 C 7,4 km/h (2 Bft)
30.12.2021 01:35 7,0 C 9,0 C 6,7 C 7,5 C 7,5 C 0,5 C 89 % 95 % 1011,1 hPa 0,0 l/m 4,0 km/h (1 Bft) S-SO 157 0 min 5,3 C 7,5 C 9,2 km/h (2 Bft)
30.12.2021 01:40 7,0 C 9,1 C 6,7 C 7,7 C 7,7 C 0,7 C 89 % 95 % 1011,1 hPa 0,0 l/m 3,7 km/h (1 Bft) S 180 0 min 5,3 C 7,7 C 3,1 km/h (1 Bft)
30.12.2021 01:45 6,9 C 9,1 C 6,7 C 7,7 C 7,7 C 0,8 C 89 % 95 % 1011,1 hPa 0,0 l/m 3,4 km/h (1 Bft) S 180 0 min 5,2 C 7,7 C 9,8 km/h (2 Bft)
30.12.2021 01:50 6,9 C 9,1 C 6,8 C 7,7 C 7,7 C 0,8 C 89 % 95 % 1010,9 hPa 0,0 l/m 3,7 km/h (1 Bft) SO 135 0 min 5,2 C 7,7 C 4,5 km/h (1 Bft)
30.12.2021 01:55 6,9 C 9,1 C 6,9 C 7,8 C 7,8 C 0,9 C 88 % 95 % 1010,9 hPa 0,0 l/m 3,1 km/h (1 Bft) S-SO 157 0 min 5,1 C 7,8 C 2,7 km/h (1 Bft)
30.12.2021 02:00 7,0 C 9,1 C 6,9 C 7,9 C 7,9 C 0,9 C 89 % 95 % 1010,9 hPa 0,0 l/m 2,3 km/h (1 Bft) NW 315 0 min 5,3 C 7,9 C 4,5 km/h (1 Bft)
30.12.2021 02:05 6,9 C 9,1 C 7,0 C 7,9 C 7,9 C 1,0 C 89 % 95 % 1010,9 hPa 0,0 l/m 2,1 km/h (1 Bft) S 180 0 min 5,2 C 7,9 C 3,5 km/h (1 Bft)
30.12.2021 02:10 6,9 C 9,1 C 7,1 C 8,0 C 8,0 C 1,1 C 88 % 95 % 1011,4 hPa 0,0 l/m 2,3 km/h (1 Bft) O-NO 67 0 min 5,1 C 8,0 C 5,5 km/h (1 Bft)
30.12.2021 02:15 7,0 C 9,1 C 7,1 C 8,0 C 8,0 C 1,0 C 88 % 95 % 1011,4 hPa 0,0 l/m 2,3 km/h (1 Bft) S 180 0 min 5,2 C 8,0 C 1,9 km/h (1 Bft)
30.12.2021 02:20 7,1 C 9,1 C 7,1 C 8,0 C 8,0 C 0,9 C 88 % 95 % 1011,4 hPa 0,0 l/m 2,4 km/h (1 Bft) W 270 0 min 5,2 C 8,0 C 3,7 km/h (1 Bft)
30.12.2021 02:25 7,1 C 9,1 C 7,2 C 8,0 C 8,0 C 0,9 C 88 % 95 % 1011,4 hPa 0,0 l/m 2,1 km/h (1 Bft) O-SO 112 0 min 5,2 C 8,0 C 2,3 km/h (1 Bft)
30.12.2021 02:30 7,1 C 9,1 C 7,2 C 8,1 C 8,1 C 1,0 C 88 % 95 % 1011,5 hPa 0,0 l/m 2,4 km/h (1 Bft) O-NO 67 0 min 5,2 C 8,1 C 1,6 km/h (1 Bft)
30.12.2021 02:35 7,0 C 9,1 C 7,2 C 8,2 C 8,2 C 1,2 C 88 % 95 % 1011,5 hPa 0,0 l/m 3,1 km/h (1 Bft) SW 225 0 min 5,2 C 8,2 C 5,1 km/h (1 Bft)
30.12.2021 02:40 7,1 C 9,1 C 7,3 C 8,2 C 8,2 C 1,1 C 88 % 95 % 1011,5 hPa 0,0 l/m 3,2 km/h (1 Bft) W-SW 247 0 min 5,2 C 8,2 C 3,5 km/h (1 Bft)
30.12.2021 02:45 7,1 C 9,2 C 7,3 C 7,9 C 7,9 C 0,8 C 88 % 95 % 1011,5 hPa 0,7 l/m 4,5 km/h (1 Bft) S-SW 202 0 min 5,2 C 7,9 C 3,1 km/h (1 Bft)
30.12.2021 02:50 7,2 C 9,2 C 7,4 C 7,9 C 7,9 C 0,7 C 88 % 95 % 1011,6 hPa 0,0 l/m 4,5 km/h (1 Bft) SW 225 0 min 5,3 C 7,9 C 7,6 km/h (2 Bft)
30.12.2021 02:55 7,2 C 9,2 C 7,4 C 8,2 C 8,2 C 1,0 C 88 % 95 % 1011,6 hPa 0,0 l/m 4,3 km/h (1 Bft) SW 225 0 min 5,3 C 8,2 C 6,1 km/h (2 Bft)
30.12.2021 03:00 7,2 C 9,2 C 7,4 C 8,1 C 8,1 C 0,9 C 88 % 95 % 1011,6 hPa 0,0 l/m 5,0 km/h (1 Bft) W-SW 247 0 min 5,3 C 7,6 C 5,3 km/h (1 Bft)
30.12.2021 03:05 7,2 C 9,2 C 7,5 C 8,0 C 8,0 C 0,8 C 88 % 95 % 1011,6 hPa 0,0 l/m 4,8 km/h (1 Bft) S-SO 157 0 min 5,3 C 7,6 C 4,8 km/h (1 Bft)
30.12.2021 03:10 7,2 C 9,2 C 7,5 C 8,1 C 8,1 C 0,9 C 88 % 95 % 1012,0 hPa 0,0 l/m 4,5 km/h (1 Bft) SW 225 0 min 5,3 C 8,1 C 3,7 km/h (1 Bft)
30.12.2021 03:15 7,2 C 9,2 C 7,4 C 8,4 C 8,4 C 1,2 C 88 % 95 % 1012,0 hPa 0,0 l/m 3,5 km/h (1 Bft) W-SW 247 0 min 5,3 C 8,4 C 3,2 km/h (1 Bft)
30.12.2021 03:20 7,3 C 9,2 C 7,4 C 8,4 C 8,4 C 1,1 C 88 % 95 % 1012,0 hPa 0,0 l/m 2,4 km/h (1 Bft) W-SW 247 0 min 5,4 C 8,4 C 0,0 km/h (0 Bft)
30.12.2021 03:25 7,3 C 9,2 C 7,5 C 8,5 C 8,5 C 1,2 C 88 % 95 % 1012,0 hPa 0,0 l/m 2,4 km/h (1 Bft) W-SW 247 0 min 5,4 C 8,5 C 2,3 km/h (1 Bft)
30.12.2021 03:30 7,2 C 9,2 C 7,5 C 8,5 C 8,5 C 1,3 C 88 % 95 % 1012,1 hPa 0,0 l/m 2,9 km/h (1 Bft) S-SW 202 0 min 5,3 C 8,5 C 2,4 km/h (1 Bft)
30.12.2021 03:35 7,2 C 9,2 C 7,5 C 8,5 C 8,5 C 1,3 C 88 % 95 % 1012,1 hPa 0,0 l/m 2,6 km/h (1 Bft) W 270 0 min 5,3 C 8,5 C 2,4 km/h (1 Bft)
30.12.2021 03:40 7,2 C 9,2 C 7,5 C 8,5 C 8,5 C 1,3 C 88 % 95 % 1012,1 hPa 0,0 l/m 2,6 km/h (1 Bft) SW 225 0 min 5,3 C 8,5 C 3,5 km/h (1 Bft)
30.12.2021 03:45 7,3 C 9,2 C 7,5 C 8,5 C 8,5 C 1,2 C 88 % 95 % 1012,1 hPa 0,0 l/m 3,4 km/h (1 Bft) SW 225 0 min 5,4 C 8,5 C 5,3 km/h (1 Bft)
30.12.2021 03:50 7,3 C 9,1 C 7,5 C 8,3 C 8,3 C 1,0 C 88 % 95 % 1012,1 hPa 0,0 l/m 4,2 km/h (1 Bft) S 180 0 min 5,4 C 8,3 C 10,0 km/h (2 Bft)
30.12.2021 03:55 7,5 C 9,2 C 7,5 C 8,3 C 8,3 C 0,8 C 88 % 95 % 1012,1 hPa 0,0 l/m 4,5 km/h (1 Bft) W-SW 247 0 min 5,6 C 8,3 C 4,8 km/h (1 Bft)
30.12.2021 04:00 7,4 C 9,1 C 7,6 C 8,5 C 8,5 C 1,1 C 88 % 95 % 1012,1 hPa 0,0 l/m 4,3 km/h (1 Bft) SW 225 0 min 5,5 C 8,5 C 7,2 km/h (2 Bft)
30.12.2021 04:05 7,6 C 9,1 C 7,6 C 8,3 C 8,3 C 0,7 C 88 % 95 % 1012,1 hPa 0,0 l/m 5,1 km/h (1 Bft) W-SW 247 0 min 5,7 C 7,8 C 10,8 km/h (2 Bft)
30.12.2021 04:10 7,7 C 9,1 C 7,6 C 8,2 C 8,2 C 0,5 C 89 % 95 % 1012,1 hPa 0,0 l/m 6,1 km/h (2 Bft) W-SW 247 0 min 6,0 C 7,4 C 10,0 km/h (2 Bft)
30.12.2021 04:15 7,7 C 9,1 C 7,7 C 8,3 C 8,3 C 0,6 C 89 % 95 % 1012,1 hPa 0,0 l/m 6,1 km/h (2 Bft) SW 225 0 min 6,0 C 7,5 C 13,2 km/h (3 Bft)
30.12.2021 04:20 7,9 C 9,1 C 7,7 C 8,4 C 8,4 C 0,5 C 89 % 95 % 1012,1 hPa 0,0 l/m 5,8 km/h (2 Bft) W-SW 247 0 min 6,2 C 7,7 C 5,0 km/h (1 Bft)
30.12.2021 04:25 7,9 C 9,1 C 7,8 C 8,6 C 8,6 C 0,7 C 89 % 95 % 1012,1 hPa 0,0 l/m 5,3 km/h (1 Bft) SW 225 0 min 6,2 C 8,1 C 9,2 km/h (2 Bft)
30.12.2021 04:30 7,9 C 9,1 C 7,8 C 8,9 C 8,9 C 1,0 C 89 % 95 % 1013,1 hPa 0,0 l/m 4,8 km/h (1 Bft) W-SW 247 0 min 6,2 C 8,6 C 4,3 km/h (1 Bft)
30.12.2021 04:35 8,1 C 9,2 C 7,9 C 9,2 C 9,2 C 1,1 C 89 % 95 % 1013,1 hPa 0,0 l/m 4,3 km/h (1 Bft) SW 225 0 min 6,4 C 9,2 C 2,7 km/h (1 Bft)
30.12.2021 04:40 8,0 C 9,1 C 7,9 C 9,3 C 9,3 C 1,3 C 89 % 95 % 1013,1 hPa 0,0 l/m 4,0 km/h (1 Bft) W-SW 247 0 min 6,3 C 9,3 C 5,0 km/h (1 Bft)
30.12.2021 04:45 8,2 C 9,1 C 7,9 C 9,2 C 9,2 C 1,0 C 89 % 95 % 1013,1 hPa 0,0 l/m 4,7 km/h (1 Bft) SW 225 0 min 6,5 C 8,9 C 5,0 km/h (1 Bft)
30.12.2021 04:50 8,2 C 9,1 C 7,9 C 9,3 C 9,3 C 1,1 C 88 % 95 % 1013,5 hPa 0,0 l/m 4,7 km/h (1 Bft) S-SW 202 0 min 6,3 C 9,1 C 4,3 km/h (1 Bft)
30.12.2021 04:55 8,4 C 9,2 C 8,0 C 9,4 C 9,4 C 1,0 C 89 % 95 % 1013,5 hPa 0,0 l/m 4,5 km/h (1 Bft) SW 225 0 min 6,7 C 9,4 C 6,1 km/h (2 Bft)
30.12.2021 05:00 8,4 C 9,1 C 8,1 C 9,1 C 9,1 C 0,7 C 88 % 95 % 1013,5 hPa 0,0 l/m 6,1 km/h (2 Bft) SW 225 0 min 6,5 C 8,4 C 8,2 km/h (2 Bft)
30.12.2021 05:05 8,7 C 9,2 C 8,1 C 9,1 C 9,1 C 0,4 C 89 % 95 % 1013,5 hPa 0,0 l/m 6,9 km/h (2 Bft) S 180 0 min 7,0 C 8,2 C 13,7 km/h (3 Bft)
30.12.2021 05:10 8,7 C 9,2 C 8,2 C 9,4 C 9,4 C 0,7 C 88 % 95 % 1014,1 hPa 0,0 l/m 6,3 km/h (2 Bft) SW 225 0 min 6,8 C 8,7 C 6,9 km/h (2 Bft)
30.12.2021 05:15 8,8 C 9,2 C 8,3 C 9,7 C 9,7 C 0,9 C 88 % 95 % 1014,1 hPa 0,0 l/m 5,3 km/h (1 Bft) W-SW 247 0 min 6,9 C 9,3 C 8,0 km/h (2 Bft)
30.12.2021 05:20 8,9 C 9,2 C 8,3 C 9,8 C 9,8 C 0,9 C 88 % 95 % 1014,1 hPa 0,0 l/m 4,8 km/h (1 Bft) S-SW 202 0 min 7,0 C 9,6 C 7,7 km/h (2 Bft)
30.12.2021 05:25 9,1 C 9,2 C 8,3 C 9,9 C 9,9 C 0,8 C 89 % 95 % 1014,1 hPa 0,0 l/m 4,3 km/h (1 Bft) SW 225 0 min 7,4 C 9,9 C 3,5 km/h (1 Bft)
30.12.2021 05:30 9,0 C 9,2 C 8,3 C 9,9 C 9,9 C 0,9 C 88 % 95 % 1013,9 hPa 0,0 l/m 4,3 km/h (1 Bft) SW 225 0 min 7,1 C 9,9 C 6,4 km/h (2 Bft)
30.12.2021 05:35 9,1 C 9,2 C 8,3 C 9,9 C 9,9 C 0,8 C 89 % 95 % 1013,9 hPa 0,0 l/m 4,3 km/h (1 Bft) SW 225 0 min 7,4 C 9,9 C 5,1 km/h (1 Bft)
30.12.2021 05:40 9,2 C 9,2 C 8,3 C 9,9 C 9,9 C 0,7 C 89 % 95 % 1013,9 hPa 0,0 l/m 4,3 km/h (1 Bft) SW 225 0 min 7,5 C 9,9 C 4,5 km/h (1 Bft)
30.12.2021 05:45 9,2 C 9,2 C 8,3 C 10,0 C 10,0 C 0,8 C 89 % 95 % 1013,9 hPa 0,0 l/m 2,9 km/h (1 Bft) O-SO 112 0 min 7,5 C 10,0 C 0,0 km/h (0 Bft)
30.12.2021 05:50 9,3 C 9,2 C 8,3 C 9,9 C 9,9 C 0,6 C 89 % 95 % 1014,2 hPa 0,0 l/m 2,6 km/h (1 Bft) SO 135 0 min 7,6 C 9,9 C 5,3 km/h (1 Bft)
30.12.2021 05:55 9,3 C 9,2 C 8,3 C 9,8 C 9,8 C 0,5 C 89 % 95 % 1014,2 hPa 0,0 l/m 2,9 km/h (1 Bft) W 270 0 min 7,6 C 9,8 C 8,0 km/h (2 Bft)
30.12.2021 06:00 9,3 C 9,2 C 8,3 C 9,7 C 9,7 C 0,4 C 89 % 95 % 1014,2 hPa 0,0 l/m 4,3 km/h (1 Bft) SW 225 0 min 7,6 C 9,7 C 8,2 km/h (2 Bft)
30.12.2021 06:05 9,5 C 9,2 C 8,3 C 9,7 C 9,7 C 0,2 C 89 % 95 % 1014,2 hPa 0,0 l/m 3,9 km/h (1 Bft) SO 135 0 min 7,8 C 9,7 C 2,3 km/h (1 Bft)
30.12.2021 06:10 9,5 C 9,2 C 8,3 C 9,7 C 9,7 C 0,2 C 89 % 95 % 1014,2 hPa 0,0 l/m 2,7 km/h (1 Bft) W-NW 292 0 min 7,8 C 9,7 C 1,8 km/h (1 Bft)
30.12.2021 06:15 9,4 C 9,2 C 8,3 C 9,5 C 9,5 C 0,1 C 89 % 95 % 1014,2 hPa 0,0 l/m 1,9 km/h (1 Bft) W 270 0 min 7,7 C 9,5 C 4,2 km/h (1 Bft)
30.12.2021 06:20 9,4 C 9,2 C 8,3 C 9,4 C 9,4 C 0,0 C 89 % 95 % 1014,2 hPa 0,0 l/m 2,6 km/h (1 Bft) W-SW 247 0 min 7,7 C 9,4 C 6,6 km/h (2 Bft)
30.12.2021 06:25 9,4 C 9,2 C 8,2 C 9,4 C 9,4 C 0,0 C 89 % 95 % 1014,2 hPa 0,0 l/m 3,9 km/h (1 Bft) SW 225 0 min 7,7 C 9,4 C 10,1 km/h (2 Bft)
30.12.2021 06:30 9,4 C 9,2 C 8,1 C 9,3 C 9,2 C 0,0 C 88 % 95 % 1014,8 hPa 0,0 l/m 4,5 km/h (1 Bft) SW 225 0 min 7,5 C 9,2 C 6,8 km/h (2 Bft)
30.12.2021 06:35 9,3 C 9,2 C 8,1 C 9,3 C 9,2 C 0,0 C 89 % 95 % 1014,8 hPa 0,0 l/m 4,5 km/h (1 Bft) W-SW 247 0 min 7,6 C 9,2 C 6,1 km/h (2 Bft)
30.12.2021 06:40 9,3 C 9,2 C 8,0 C 9,3 C 9,2 C 0,0 C 89 % 95 % 1014,8 hPa 0,0 l/m 4,5 km/h (1 Bft) S-SW 202 0 min 7,6 C 9,2 C 7,4 km/h (2 Bft)
30.12.2021 06:45 9,3 C 9,2 C 8,1 C 9,5 C 9,5 C 0,2 C 88 % 95 % 1014,8 hPa 0,0 l/m 4,0 km/h (1 Bft) SW 225 0 min 7,4 C 9,5 C 5,1 km/h (1 Bft)
30.12.2021 06:50 9,3 C 9,2 C 8,1 C 9,5 C 9,5 C 0,2 C 89 % 95 % 1014,8 hPa 0,0 l/m 3,5 km/h (1 Bft) SW 225 0 min 7,6 C 9,5 C 3,4 km/h (1 Bft)
30.12.2021 06:55 9,3 C 9,2 C 8,1 C 9,6 C 9,6 C 0,3 C 88 % 95 % 1014,8 hPa 0,0 l/m 3,4 km/h (1 Bft) SW 225 0 min 7,4 C 9,6 C 3,7 km/h (1 Bft)
30.12.2021 07:00 9,3 C 9,2 C 8,2 C 9,5 C 9,5 C 0,2 C 88 % 95 % 1014,8 hPa 0,0 l/m 3,5 km/h (1 Bft) W 270 0 min 7,4 C 9,5 C 3,2 km/h (1 Bft)
30.12.2021 07:05 9,3 C 9,2 C 8,2 C 9,5 C 9,5 C 0,2 C 88 % 95 % 1014,8 hPa 0,0 l/m 3,7 km/h (1 Bft) S-SO 157 0 min 7,4 C 9,5 C 5,8 km/h (2 Bft)
30.12.2021 07:10 9,3 C 9,3 C 8,1 C 9,5 C 9,5 C 0,2 C 88 % 95 % 1014,2 hPa 0,0 l/m 3,4 km/h (1 Bft) SW 225 0 min 7,4 C 9,5 C 3,7 km/h (1 Bft)
30.12.2021 07:15 9,3 C 9,2 C 8,2 C 9,5 C 9,5 C 0,2 C 88 % 95 % 1014,2 hPa 0,0 l/m 3,1 km/h (1 Bft) S 180 0 min 7,4 C 9,5 C 3,4 km/h (1 Bft)
30.12.2021 07:20 9,3 C 9,2 C 8,3 C 9,6 C 9,6 C 0,3 C 88 % 95 % 1014,2 hPa 0,0 l/m 2,9 km/h (1 Bft) SW 225 0 min 7,4 C 9,6 C 3,2 km/h (1 Bft)
30.12.2021 07:25 9,5 C 9,3 C 8,5 C 9,7 C 9,7 C 0,2 C 88 % 95 % 1014,2 hPa 0,0 l/m 3,2 km/h (1 Bft) SW 225 0 min 7,6 C 9,7 C 4,7 km/h (1 Bft)
30.12.2021 07:30 9,4 C 9,3 C 8,5 C 9,7 C 9,7 C 0,3 C 88 % 95 % 1014,2 hPa 0,0 l/m 2,9 km/h (1 Bft) SW 225 0 min 7,5 C 9,7 C 4,2 km/h (1 Bft)
30.12.2021 07:35 9,5 C 9,3 C 8,5 C 9,7 C 9,7 C 0,2 C 88 % 95 % 1014,2 hPa 0,0 l/m 2,9 km/h (1 Bft) W-SW 247 0 min 7,6 C 9,7 C 6,8 km/h (2 Bft)
30.12.2021 07:40 9,6 C 9,3 C 8,6 C 9,8 C 9,8 C 0,2 C 88 % 95 % 1014,2 hPa 0,0 l/m 3,4 km/h (1 Bft) W-SW 247 0 min 7,7 C 9,8 C 3,9 km/h (1 Bft)
30.12.2021 07:45 9,7 C 9,3 C 8,6 C 9,9 C 9,9 C 0,2 C 88 % 95 % 1014,2 hPa 0,0 l/m 3,9 km/h (1 Bft) SO 135 0 min 7,8 C 9,9 C 3,4 km/h (1 Bft)
30.12.2021 07:50 9,6 C 9,3 C 8,6 C 9,9 C 9,9 C 0,3 C 88 % 95 % 1014,9 hPa 0,0 l/m 3,4 km/h (1 Bft) W 270 0 min 7,7 C 9,9 C 3,1 km/h (1 Bft)
30.12.2021 07:55 9,6 C 9,3 C 8,7 C 9,9 C 9,9 C 0,3 C 88 % 95 % 1014,9 hPa 0,0 l/m 3,2 km/h (1 Bft) W-SW 247 0 min 7,7 C 9,9 C 7,6 km/h (2 Bft)
30.12.2021 08:00 9,7 C 9,3 C 8,7 C 9,9 C 9,9 C 0,2 C 88 % 95 % 1014,9 hPa 0,0 l/m 2,9 km/h (1 Bft) S-SO 157 0 min 7,8 C 9,9 C 2,3 km/h (1 Bft)
30.12.2021 08:05 9,7 C 9,3 C 8,7 C 9,9 C 9,9 C 0,2 C 88 % 95 % 1014,9 hPa 0,0 l/m 2,3 km/h (1 Bft) O-NO 67 0 min 7,8 C 9,9 C 2,6 km/h (1 Bft)
30.12.2021 08:10 9,7 C 9,3 C 8,7 C 9,8 C 9,8 C 0,1 C 88 % 95 % 1015,0 hPa 0,0 l/m 1,9 km/h (1 Bft) W-SW 247 0 min 7,8 C 9,8 C 3,7 km/h (1 Bft)
30.12.2021 08:15 9,7 C 9,3 C 8,7 C 9,9 C 9,9 C 0,2 C 88 % 95 % 1015,0 hPa 0,0 l/m 2,3 km/h (1 Bft) SO 135 0 min 7,8 C 9,9 C 5,3 km/h (1 Bft)
30.12.2021 08:20 9,7 C 9,3 C 8,7 C 9,9 C 9,9 C 0,2 C 88 % 95 % 1015,0 hPa 0,0 l/m 2,3 km/h (1 Bft) SO 135 0 min 7,8 C 9,9 C 2,7 km/h (1 Bft)
30.12.2021 08:25 9,6 C 9,3 C 8,7 C 9,8 C 9,8 C 0,2 C 88 % 95 % 1015,0 hPa 0,0 l/m 1,1 km/h (1 Bft) NW 315 0 min 7,7 C 9,8 C 1,6 km/h (1 Bft)
30.12.2021 08:30 9,7 C 9,3 C 8,6 C 9,7 C 9,7 C 0,0 C 88 % 95 % 1015,2 hPa 0,0 l/m 1,0 km/h (0 Bft) N-NW 337 0 min 7,8 C 9,7 C 0,0 km/h (0 Bft)
30.12.2021 08:35 9,6 C 9,3 C 8,6 C 9,7 C 9,7 C 0,1 C 88 % 95 % 1015,2 hPa 0,0 l/m 1,6 km/h (1 Bft) SO 135 0 min 7,7 C 9,7 C 5,5 km/h (1 Bft)
30.12.2021 08:40 9,7 C 9,3 C 8,6 C 9,8 C 9,8 C 0,1 C 88 % 95 % 1015,2 hPa 0,0 l/m 3,1 km/h (1 Bft) SW 225 0 min 7,8 C 9,8 C 9,2 km/h (2 Bft)
30.12.2021 08:45 9,7 C 9,3 C 8,7 C 9,8 C 9,8 C 0,1 C 88 % 95 % 1015,2 hPa 0,0 l/m 4,7 km/h (1 Bft) N 360 0 min 7,8 C 9,6 C 6,8 km/h (2 Bft)
30.12.2021 08:50 9,7 C 9,4 C 8,7 C 9,9 C 9,9 C 0,2 C 88 % 95 % 1015,2 hPa 0,0 l/m 4,5 km/h (1 Bft) S 180 0 min 7,8 C 9,9 C 2,9 km/h (1 Bft)
30.12.2021 08:55 9,7 C 9,4 C 8,7 C 10,1 C 10,1 C 0,4 C 88 % 95 % 1015,2 hPa 0,0 l/m 4,3 km/h (1 Bft) SW 225 0 min 7,8 C 10,1 C 5,0 km/h (1 Bft)
30.12.2021 09:00 9,7 C 9,4 C 8,7 C 10,0 C 10,0 C 0,3 C 88 % 94 % 1015,2 hPa 0,0 l/m 4,0 km/h (1 Bft) SO 135 0 min 7,8 C 10,0 C 4,5 km/h (1 Bft)
30.12.2021 09:05 9,7 C 9,4 C 8,8 C 10,0 C 10,0 C 0,3 C 88 % 94 % 1015,2 hPa 0,0 l/m 3,4 km/h (1 Bft) S 180 0 min 7,8 C 10,0 C 11,6 km/h (2 Bft)
30.12.2021 09:10 9,7 C 9,4 C 8,8 C 9,8 C 9,8 C 0,1 C 88 % 94 % 1015,4 hPa 0,0 l/m 3,5 km/h (1 Bft) SW 225 0 min 7,8 C 9,8 C 9,7 km/h (2 Bft)
30.12.2021 09:15 9,9 C 9,4 C 8,8 C 9,8 C 9,7 C 0,0 C 88 % 95 % 1015,4 hPa 0,0 l/m 3,9 km/h (1 Bft) W-SW 247 0 min 8,0 C 9,7 C 5,5 km/h (1 Bft)
30.12.2021 09:20 9,8 C 9,4 C 8,9 C 9,7 C 9,6 C 0,0 C 88 % 95 % 1015,4 hPa 0,0 l/m 3,5 km/h (1 Bft) SO 135 0 min 7,9 C 9,6 C 2,7 km/h (1 Bft)
30.12.2021 09:25 9,9 C 9,4 C 8,9 C 9,8 C 9,7 C 0,0 C 88 % 94 % 1015,4 hPa 0,0 l/m 3,9 km/h (1 Bft) W-SW 247 0 min 8,0 C 9,7 C 5,3 km/h (1 Bft)
30.12.2021 09:30 10,0 C 9,4 C 9,0 C 9,9 C 9,7 C 0,0 C 88 % 94 % 1015,6 hPa 0,0 l/m 4,2 km/h (1 Bft) W-SW 247 0 min 8,1 C 9,7 C 5,0 km/h (1 Bft)
30.12.2021 09:35 10,0 C 9,5 C 9,0 C 9,9 C 9,6 C 0,0 C 88 % 94 % 1015,6 hPa 0,0 l/m 4,5 km/h (1 Bft) S 180 0 min 8,1 C 9,6 C 8,9 km/h (2 Bft)
30.12.2021 09:40 10,1 C 9,5 C 9,0 C 10,0 C 9,7 C 0,0 C 88 % 94 % 1015,6 hPa 0,0 l/m 4,3 km/h (1 Bft) S 180 0 min 8,2 C 9,7 C 3,7 km/h (1 Bft)
30.12.2021 09:45 10,1 C 9,5 C 9,1 C 10,0 C 9,7 C 0,0 C 88 % 94 % 1015,6 hPa 0,0 l/m 4,3 km/h (1 Bft) S 180 0 min 8,2 C 9,7 C 4,0 km/h (1 Bft)
30.12.2021 09:50 10,0 C 9,5 C 9,1 C 9,8 C 9,4 C 0,0 C 88 % 94 % 1015,6 hPa 0,0 l/m 5,0 km/h (1 Bft) O-SO 112 0 min 8,1 C 9,1 C 4,3 km/h (1 Bft)
30.12.2021 09:55 10,0 C 9,5 C 9,2 C 9,9 C 9,8 C 0,0 C 88 % 94 % 1015,6 hPa 0,0 l/m 4,8 km/h (1 Bft) SW 225 0 min 8,1 C 9,6 C 6,6 km/h (2 Bft)
30.12.2021 10:00 10,1 C 9,5 C 9,2 C 10,0 C 9,9 C 0,0 C 88 % 94 % 1015,6 hPa 0,0 l/m 5,0 km/h (1 Bft) SW 225 0 min 8,2 C 9,6 C 11,4 km/h (2 Bft)
30.12.2021 10:05 10,1 C 9,5 C 9,3 C 10,0 C 9,8 C 0,0 C 88 % 94 % 1015,6 hPa 0,0 l/m 4,8 km/h (1 Bft) S 180 0 min 8,2 C 9,6 C 8,5 km/h (2 Bft)
30.12.2021 10:10 10,1 C 9,5 C 9,3 C 10,1 C 10,1 C 0,0 C 88 % 94 % 1015,6 hPa 0,0 l/m 4,3 km/h (1 Bft) NO 45 0 min 8,2 C 10,1 C 2,4 km/h (1 Bft)
30.12.2021 10:15 10,3 C 9,5 C 9,4 C 10,3 C 10,3 C 0,0 C 88 % 94 % 1015,6 hPa 0,0 l/m 3,7 km/h (1 Bft) SW 225 0 min 8,4 C 10,3 C 8,0 km/h (2 Bft)
30.12.2021 10:20 10,3 C 9,5 C 9,5 C 10,4 C 10,4 C 0,1 C 88 % 94 % 1015,6 hPa 0,0 l/m 3,9 km/h (1 Bft) S-SO 157 0 min 8,4 C 10,4 C 9,8 km/h (2 Bft)
30.12.2021 10:25 10,3 C 9,6 C 9,5 C 10,4 C 10,4 C 0,1 C 87 % 94 % 1015,6 hPa 0,0 l/m 4,0 km/h (1 Bft) S 180 0 min 8,2 C 10,4 C 5,8 km/h (2 Bft)
30.12.2021 10:30 10,4 C 9,6 C 9,5 C 10,5 C 10,5 C 0,1 C 87 % 94 % 1015,8 hPa 0,0 l/m 4,3 km/h (1 Bft) S-SW 202 0 min 8,3 C 10,5 C 4,8 km/h (1 Bft)
30.12.2021 10:35 10,5 C 9,6 C 9,6 C 10,6 C 10,6 C 0,1 C 87 % 94 % 1015,8 hPa 0,0 l/m 4,7 km/h (1 Bft) SO 135 0 min 8,4 C 10,6 C 5,1 km/h (1 Bft)
30.12.2021 10:40 10,4 C 9,6 C 9,7 C 10,4 C 10,4 C 0,0 C 87 % 94 % 1015,8 hPa 0,0 l/m 4,5 km/h (1 Bft) W 270 0 min 8,3 C 10,4 C 5,5 km/h (1 Bft)
30.12.2021 10:45 10,4 C 9,6 C 9,7 C 10,5 C 10,5 C 0,1 C 87 % 94 % 1015,8 hPa 0,0 l/m 3,7 km/h (1 Bft) SW 225 0 min 8,3 C 10,5 C 10,0 km/h (2 Bft)
30.12.2021 10:50 10,5 C 9,6 C 9,6 C 10,5 C 10,5 C 0,0 C 87 % 94 % 1015,8 hPa 0,0 l/m 4,3 km/h (1 Bft) S-SW 202 0 min 8,4 C 10,5 C 8,5 km/h (2 Bft)
30.12.2021 10:55 10,6 C 9,6 C 9,7 C 10,5 C 10,4 C 0,0 C 87 % 94 % 1015,8 hPa 0,0 l/m 4,5 km/h (1 Bft) N 360 0 min 8,5 C 10,4 C 6,4 km/h (2 Bft)
30.12.2021 11:00 10,5 C 9,6 C 9,7 C 10,5 C 10,4 C 0,0 C 87 % 94 % 1015,8 hPa 0,0 l/m 4,5 km/h (1 Bft) S 180 0 min 8,4 C 10,4 C 4,2 km/h (1 Bft)
30.12.2021 11:05 10,5 C 9,7 C 9,7 C 10,6 C 10,6 C 0,1 C 87 % 94 % 1015,8 hPa 0,0 l/m 3,5 km/h (1 Bft) W 270 0 min 8,4 C 10,6 C 5,8 km/h (2 Bft)
30.12.2021 11:10 10,6 C 9,7 C 9,7 C 10,7 C 10,7 C 0,1 C 87 % 94 % 1015,8 hPa 0,0 l/m 3,7 km/h (1 Bft) SO 135 0 min 8,5 C 10,7 C 7,6 km/h (2 Bft)
30.12.2021 11:15 10,6 C 9,7 C 9,8 C 10,8 C 10,8 C 0,2 C 87 % 94 % 1015,8 hPa 0,0 l/m 4,5 km/h (1 Bft) SW 225 0 min 8,5 C 10,8 C 13,8 km/h (3 Bft)
30.12.2021 11:20 10,7 C 9,7 C 9,9 C 10,7 C 10,7 C 0,0 C 87 % 94 % 1015,8 hPa 0,0 l/m 5,1 km/h (1 Bft) SO 135 0 min 8,6 C 10,7 C 3,4 km/h (1 Bft)
30.12.2021 11:25 10,7 C 9,7 C 9,9 C 10,9 C 10,9 C 0,2 C 87 % 94 % 1015,8 hPa 0,0 l/m 4,0 km/h (1 Bft) W 270 0 min 8,6 C 10,9 C 4,2 km/h (1 Bft)
30.12.2021 11:30 10,7 C 9,7 C 9,9 C 11,0 C 11,0 C 0,3 C 87 % 94 % 1015,2 hPa 0,0 l/m 3,1 km/h (1 Bft) S-SW 202 0 min 8,6 C 11,0 C 1,9 km/h (1 Bft)
30.12.2021 11:35 10,7 C 9,7 C 9,9 C 11,2 C 11,2 C 0,5 C 87 % 94 % 1015,2 hPa 0,0 l/m 4,0 km/h (1 Bft) SW 225 0 min 8,6 C 11,2 C 9,2 km/h (2 Bft)
30.12.2021 11:40 10,8 C 9,7 C 9,9 C 11,2 C 11,2 C 0,4 C 87 % 94 % 1015,2 hPa 0,0 l/m 4,2 km/h (1 Bft) S-SO 157 0 min 8,7 C 11,2 C 3,9 km/h (1 Bft)
30.12.2021 11:45 10,8 C 9,7 C 10,0 C 11,3 C 11,3 C 0,5 C 87 % 94 % 1015,2 hPa 0,0 l/m 4,3 km/h (1 Bft) S 180 0 min 8,7 C 11,3 C 5,3 km/h (1 Bft)
30.12.2021 11:50 10,8 C 9,8 C 10,1 C 11,4 C 11,4 C 0,6 C 87 % 94 % 1015,3 hPa 0,0 l/m 4,3 km/h (1 Bft) W-SW 247 0 min 8,7 C 11,4 C 4,8 km/h (1 Bft)
30.12.2021 11:55 11,1 C 9,8 C 10,2 C 11,6 C 11,6 C 0,5 C 88 % 94 % 1015,3 hPa 0,0 l/m 4,3 km/h (1 Bft) SO 135 0 min 9,2 C 11,6 C 4,2 km/h (1 Bft)
30.12.2021 12:00 11,1 C 9,8 C 10,3 C 11,7 C 11,7 C 0,6 C 88 % 93 % 1015,3 hPa 0,0 l/m 3,9 km/h (1 Bft) N-NW 337 0 min 9,2 C 11,7 C 4,3 km/h (1 Bft)
30.12.2021 12:05 11,1 C 9,8 C 10,3 C 11,8 C 11,8 C 0,7 C 88 % 93 % 1015,3 hPa 0,0 l/m 3,7 km/h (1 Bft) S 180 0 min 9,2 C 11,8 C 4,3 km/h (1 Bft)
30.12.2021 12:10 11,1 C 9,8 C 10,3 C 11,8 C 11,8 C 0,7 C 87 % 93 % 1015,4 hPa 0,0 l/m 4,0 km/h (1 Bft) SW 225 0 min 9,0 C 11,8 C 7,2 km/h (2 Bft)
30.12.2021 12:15 11,2 C 9,8 C 10,3 C 11,8 C 11,8 C 0,6 C 87 % 93 % 1015,4 hPa 0,0 l/m 4,5 km/h (1 Bft) SO 135 0 min 9,1 C 11,8 C 4,2 km/h (1 Bft)
30.12.2021 12:20 11,2 C 9,8 C 10,4 C 11,9 C 11,9 C 0,7 C 87 % 93 % 1015,4 hPa 0,0 l/m 4,2 km/h (1 Bft) S 180 0 min 9,1 C 11,9 C 4,8 km/h (1 Bft)
30.12.2021 12:25 11,2 C 9,9 C 10,4 C 12,0 C 12,0 C 0,8 C 87 % 93 % 1015,4 hPa 0,0 l/m 3,5 km/h (1 Bft) SW 225 0 min 9,1 C 12,0 C 5,1 km/h (1 Bft)
30.12.2021 12:30 11,2 C 9,9 C 10,5 C 11,8 C 11,8 C 0,6 C 87 % 93 % 1015,1 hPa 0,0 l/m 4,2 km/h (1 Bft) S-SO 157 0 min 9,1 C 11,8 C 10,0 km/h (2 Bft)
30.12.2021 12:35 11,3 C 10,0 C 10,4 C 11,5 C 11,5 C 0,2 C 87 % 94 % 1015,1 hPa 0,0 l/m 4,3 km/h (1 Bft) SW 225 0 min 9,2 C 11,5 C 7,1 km/h (2 Bft)
30.12.2021 12:40 11,2 C 10,0 C 10,3 C 11,3 C 11,3 C 0,1 C 87 % 94 % 1015,1 hPa 0,0 l/m 4,5 km/h (1 Bft) W 270 0 min 9,1 C 11,3 C 3,4 km/h (1 Bft)
30.12.2021 12:45 11,2 C 10,1 C 10,2 C 11,2 C 11,1 C 0,0 C 88 % 94 % 1015,1 hPa 0,0 l/m 4,2 km/h (1 Bft) SW 225 0 min 9,3 C 11,1 C 4,0 km/h (1 Bft)
30.12.2021 12:50 11,1 C 10,2 C 10,2 C 11,1 C 11,0 C 0,0 C 88 % 94 % 1015,4 hPa 0,7 l/m 3,1 km/h (1 Bft) W-SW 247 0 min 9,2 C 11,0 C 1,9 km/h (1 Bft)
30.12.2021 12:55 11,1 C 10,2 C 10,2 C 11,1 C 11,0 C 0,0 C 88 % 95 % 1015,4 hPa 0,0 l/m 2,7 km/h (1 Bft) S-SO 157 0 min 9,2 C 11,0 C 5,0 km/h (1 Bft)
30.12.2021 13:00 11,1 C 10,2 C 10,3 C 11,1 C 11,0 C 0,0 C 88 % 95 % 1015,4 hPa 0,0 l/m 2,6 km/h (1 Bft) S-SW 202 0 min 9,2 C 11,0 C 2,7 km/h (1 Bft)
30.12.2021 13:05 11,0 C 10,2 C 10,3 C 11,1 C 11,1 C 0,1 C 88 % 95 % 1015,4 hPa 0,0 l/m 2,9 km/h (1 Bft) W-SW 247 0 min 9,1 C 11,1 C 4,7 km/h (1 Bft)
30.12.2021 13:10 11,0 C 10,2 C 10,3 C 11,2 C 11,2 C 0,2 C 88 % 95 % 1015,1 hPa 0,0 l/m 3,2 km/h (1 Bft) W-SW 247 0 min 9,1 C 11,2 C 5,8 km/h (2 Bft)
30.12.2021 13:15 11,1 C 10,2 C 10,4 C 11,2 C 11,2 C 0,1 C 88 % 95 % 1015,1 hPa 0,0 l/m 2,9 km/h (1 Bft) SW 225 0 min 9,2 C 11,2 C 6,4 km/h (2 Bft)
30.12.2021 13:20 11,2 C 10,2 C 10,4 C 11,3 C 11,3 C 0,1 C 88 % 95 % 1015,1 hPa 0,0 l/m 3,5 km/h (1 Bft) SW 225 0 min 9,3 C 11,3 C 7,1 km/h (2 Bft)
30.12.2021 13:25 11,2 C 10,2 C 10,5 C 11,5 C 11,5 C 0,3 C 88 % 95 % 1015,1 hPa 0,0 l/m 4,0 km/h (1 Bft) W 270 0 min 9,3 C 11,5 C 4,0 km/h (1 Bft)
30.12.2021 13:30 11,3 C 10,2 C 10,5 C 11,7 C 11,7 C 0,4 C 88 % 95 % 1015,4 hPa 0,0 l/m 3,5 km/h (1 Bft) W-SW 247 0 min 9,4 C 11,7 C 10,6 km/h (2 Bft)
30.12.2021 13:35 11,5 C 10,2 C 10,7 C 12,1 C 12,1 C 0,6 C 88 % 95 % 1015,4 hPa 0,0 l/m 3,7 km/h (1 Bft) S-SW 202 0 min 9,6 C 12,1 C 7,4 km/h (2 Bft)
30.12.2021 13:40 11,6 C 10,2 C 10,9 C 12,3 C 12,3 C 0,7 C 88 % 95 % 1015,4 hPa 0,0 l/m 4,0 km/h (1 Bft) W-SW 247 0 min 9,7 C 12,3 C 5,6 km/h (1 Bft)
30.12.2021 13:45 11,6 C 10,2 C 10,9 C 12,6 C 12,6 C 1,0 C 88 % 95 % 1015,4 hPa 0,0 l/m 4,2 km/h (1 Bft) SO 135 0 min 9,7 C 12,6 C 6,6 km/h (2 Bft)
30.12.2021 13:50 11,8 C 10,2 C 11,1 C 12,7 C 12,7 C 0,9 C 88 % 95 % 1015,0 hPa 0,0 l/m 3,9 km/h (1 Bft) W-SW 247 0 min 9,9 C 12,7 C 7,4 km/h (2 Bft)
30.12.2021 13:55 11,8 C 10,2 C 11,1 C 12,6 C 12,6 C 0,8 C 88 % 95 % 1015,0 hPa 0,0 l/m 3,5 km/h (1 Bft) SO 135 0 min 9,9 C 12,6 C 4,8 km/h (1 Bft)
30.12.2021 14:00 12,0 C 10,2 C 11,1 C 12,5 C 12,5 C 0,5 C 88 % 95 % 1015,0 hPa 0,0 l/m 3,5 km/h (1 Bft) SW 225 0 min 10,1 C 12,5 C 2,4 km/h (1 Bft)
30.12.2021 14:05 12,0 C 10,2 C 11,1 C 12,6 C 12,6 C 0,6 C 88 % 94 % 1015,0 hPa 0,0 l/m 4,7 km/h (1 Bft) SW 225 0 min 10,1 C 12,6 C 7,1 km/h (2 Bft)
30.12.2021 14:10 12,2 C 10,2 C 11,1 C 12,7 C 12,7 C 0,5 C 88 % 94 % 1015,1 hPa 0,0 l/m 5,6 km/h (1 Bft) SW 225 0 min 10,3 C 12,7 C 4,8 km/h (1 Bft)
30.12.2021 14:15 12,3 C 10,2 C 11,3 C 12,8 C 12,8 C 0,5 C 88 % 94 % 1015,1 hPa 0,0 l/m 5,6 km/h (1 Bft) O-NO 67 0 min 10,4 C 12,8 C 7,6 km/h (2 Bft)
30.12.2021 14:20 12,4 C 10,2 C 11,4 C 13,0 C 13,0 C 0,6 C 88 % 94 % 1015,1 hPa 0,0 l/m 4,7 km/h (1 Bft) W-SW 247 0 min 10,5 C 13,0 C 7,2 km/h (2 Bft)
30.12.2021 14:25 12,4 C 10,2 C 11,5 C 13,1 C 13,1 C 0,7 C 88 % 94 % 1015,1 hPa 0,0 l/m 5,1 km/h (1 Bft) S 180 0 min 10,5 C 13,1 C 9,2 km/h (2 Bft)
30.12.2021 14:30 12,5 C 10,2 C 11,5 C 13,1 C 13,1 C 0,6 C 88 % 94 % 1015,1 hPa 0,0 l/m 4,8 km/h (1 Bft) SW 225 0 min 10,6 C 13,1 C 10,0 km/h (2 Bft)
30.12.2021 14:35 12,6 C 10,3 C 11,6 C 13,3 C 13,3 C 0,7 C 88 % 94 % 1015,1 hPa 0,0 l/m 4,5 km/h (1 Bft) W-SW 247 0 min 10,7 C 13,3 C 10,8 km/h (2 Bft)
30.12.2021 14:40 12,7 C 10,3 C 11,7 C 13,3 C 13,3 C 0,6 C 87 % 94 % 1015,1 hPa 0,0 l/m 5,0 km/h (1 Bft) O-SO 112 0 min 10,6 C 13,3 C 2,4 km/h (1 Bft)
30.12.2021 14:45 12,7 C 10,3 C 11,7 C 13,4 C 13,4 C 0,7 C 87 % 94 % 1015,1 hPa 0,0 l/m 4,3 km/h (1 Bft) W 270 0 min 10,6 C 13,4 C 8,4 km/h (2 Bft)
30.12.2021 14:50 12,8 C 10,3 C 11,7 C 13,5 C 13,5 C 0,7 C 87 % 94 % 1015,1 hPa 0,0 l/m 3,7 km/h (1 Bft) S 180 0 min 10,7 C 13,5 C 6,4 km/h (2 Bft)
30.12.2021 14:55 12,8 C 10,3 C 11,8 C 13,5 C 13,5 C 0,7 C 87 % 94 % 1015,1 hPa 0,0 l/m 5,0 km/h (1 Bft) S 180 0 min 10,7 C 13,5 C 8,0 km/h (2 Bft)
30.12.2021 15:00 12,9 C 10,3 C 11,9 C 13,6 C 13,6 C 0,7 C 87 % 94 % 1015,1 hPa 0,0 l/m 4,8 km/h (1 Bft) W 270 0 min 10,8 C 13,6 C 2,9 km/h (1 Bft)
30.12.2021 15:05 13,0 C 10,3 C 11,9 C 13,6 C 13,6 C 0,6 C 87 % 93 % 1015,1 hPa 0,0 l/m 4,2 km/h (1 Bft) S 180 0 min 10,9 C 13,6 C 4,5 km/h (1 Bft)
30.12.2021 15:10 13,0 C 10,3 C 11,9 C 13,7 C 13,7 C 0,7 C 87 % 93 % 1015,7 hPa 0,0 l/m 4,0 km/h (1 Bft) S 180 0 min 10,9 C 13,7 C 7,6 km/h (2 Bft)
30.12.2021 15:15 13,0 C 10,4 C 12,0 C 13,7 C 13,7 C 0,7 C 87 % 94 % 1015,7 hPa 0,0 l/m 4,5 km/h (1 Bft) SW 225 0 min 10,9 C 13,7 C 8,2 km/h (2 Bft)
30.12.2021 15:20 13,1 C 10,4 C 12,0 C 13,7 C 13,7 C 0,6 C 87 % 93 % 1015,7 hPa 0,0 l/m 5,0 km/h (1 Bft) SW 225 0 min 11,0 C 13,7 C 5,5 km/h (1 Bft)
30.12.2021 15:25 13,2 C 10,4 C 12,1 C 13,8 C 13,8 C 0,6 C 86 % 93 % 1015,7 hPa 0,0 l/m 6,1 km/h (2 Bft) W-SW 247 0 min 10,9 C 13,8 C 10,6 km/h (2 Bft)
30.12.2021 15:30 13,3 C 10,4 C 12,2 C 13,7 C 13,7 C 0,4 C 86 % 93 % 1015,1 hPa 0,0 l/m 7,1 km/h (2 Bft) NO 45 0 min 11,0 C 13,7 C 9,2 km/h (2 Bft)
30.12.2021 15:35 13,5 C 10,4 C 12,3 C 13,8 C 13,8 C 0,3 C 86 % 93 % 1015,1 hPa 0,0 l/m 7,1 km/h (2 Bft) W-SW 247 0 min 11,2 C 13,8 C 6,9 km/h (2 Bft)
30.12.2021 15:40 13,4 C 10,4 C 12,3 C 13,9 C 13,9 C 0,5 C 86 % 93 % 1015,1 hPa 0,0 l/m 6,6 km/h (2 Bft) W 270 5 min 11,1 C 13,9 C 6,0 km/h (2 Bft)
30.12.2021 15:45 13,5 C 10,5 C 12,3 C 13,9 C 13,9 C 0,4 C 86 % 93 % 1015,1 hPa 0,0 l/m 7,1 km/h (2 Bft) W-SW 247 5 min 11,2 C 13,9 C 18,5 km/h (3 Bft)
30.12.2021 15:50 13,6 C 10,5 C 12,3 C 13,9 C 13,8 C 0,3 C 86 % 93 % 1015,7 hPa 0,0 l/m 7,9 km/h (2 Bft) W-NW 292 5 min 11,3 C 13,8 C 12,4 km/h (3 Bft)
30.12.2021 15:55 13,6 C 10,5 C 12,4 C 13,9 C 13,9 C 0,3 C 85 % 93 % 1015,7 hPa 0,0 l/m 7,4 km/h (2 Bft) SW 225 5 min 11,1 C 13,9 C 7,4 km/h (2 Bft)
30.12.2021 16:00 13,7 C 10,5 C 12,4 C 14,0 C 14,0 C 0,3 C 85 % 93 % 1015,7 hPa 0,0 l/m 7,7 km/h (2 Bft) SW 225 0 min 11,2 C 14,0 C 9,3 km/h (2 Bft)
30.12.2021 16:05 13,7 C 10,5 C 12,3 C 13,9 C 13,9 C 0,2 C 85 % 93 % 1015,7 hPa 0,0 l/m 7,4 km/h (2 Bft) SW 225 0 min 11,2 C 13,9 C 10,8 km/h (2 Bft)
30.12.2021 16:10 13,7 C 10,5 C 12,3 C 13,9 C 13,8 C 0,2 C 85 % 93 % 1015,7 hPa 0,0 l/m 7,7 km/h (2 Bft) S 180 0 min 11,2 C 13,8 C 9,2 km/h (2 Bft)
30.12.2021 16:15 13,7 C 10,5 C 12,3 C 13,8 C 13,7 C 0,1 C 85 % 93 % 1015,7 hPa 0,0 l/m 7,9 km/h (2 Bft) SW 225 0 min 11,2 C 13,7 C 7,7 km/h (2 Bft)
30.12.2021 16:20 13,8 C 10,5 C 12,2 C 13,8 C 13,8 C 0,0 C 84 % 93 % 1015,7 hPa 0,0 l/m 7,2 km/h (2 Bft) W-SW 247 0 min 11,1 C 13,8 C 6,9 km/h (2 Bft)
30.12.2021 16:25 13,8 C 10,6 C 12,3 C 13,8 C 13,8 C 0,0 C 84 % 93 % 1015,7 hPa 0,0 l/m 7,2 km/h (2 Bft) W 270 0 min 11,1 C 13,8 C 7,2 km/h (2 Bft)
30.12.2021 16:30 13,9 C 10,6 C 12,3 C 13,9 C 13,9 C 0,0 C 84 % 93 % 1016,4 hPa 0,0 l/m 7,2 km/h (2 Bft) W-SW 247 0 min 11,2 C 13,9 C 8,5 km/h (2 Bft)
30.12.2021 16:35 13,9 C 10,5 C 12,2 C 13,9 C 13,8 C 0,0 C 84 % 93 % 1016,4 hPa 0,0 l/m 7,2 km/h (2 Bft) W-SW 247 0 min 11,2 C 13,8 C 7,2 km/h (2 Bft)
30.12.2021 16:40 13,9 C 10,5 C 12,2 C 13,9 C 13,8 C 0,0 C 84 % 93 % 1016,4 hPa 0,0 l/m 7,2 km/h (2 Bft) S 180 0 min 11,2 C 13,8 C 6,6 km/h (2 Bft)
30.12.2021 16:45 13,7 C 10,6 C 12,0 C 13,7 C 13,6 C 0,0 C 84 % 93 % 1016,4 hPa 0,0 l/m 6,8 km/h (2 Bft) W-SW 247 0 min 11,0 C 13,6 C 6,8 km/h (2 Bft)
30.12.2021 16:50 13,7 C 10,6 C 11,8 C 13,6 C 13,5 C 0,0 C 84 % 94 % 1015,7 hPa 0,0 l/m 6,0 km/h (2 Bft) W-SW 247 0 min 11,0 C 13,5 C 6,1 km/h (2 Bft)
30.12.2021 16:55 13,5 C 10,6 C 11,8 C 13,4 C 13,3 C 0,0 C 84 % 93 % 1015,7 hPa 0,0 l/m 5,0 km/h (1 Bft) NW 315 0 min 10,8 C 13,3 C 7,2 km/h (2 Bft)
30.12.2021 17:00 13,5 C 10,6 C 11,8 C 13,4 C 13,2 C 0,0 C 84 % 94 % 1015,7 hPa 0,0 l/m 4,5 km/h (1 Bft) W 270 0 min 10,8 C 13,2 C 3,9 km/h (1 Bft)
30.12.2021 17:05 13,4 C 10,6 C 11,8 C 13,3 C 13,1 C 0,0 C 85 % 94 % 1015,7 hPa 0,0 l/m 4,3 km/h (1 Bft) W-SW 247 0 min 10,9 C 13,1 C 7,2 km/h (2 Bft)
30.12.2021 17:10 13,3 C 10,7 C 11,7 C 13,2 C 13,1 C 0,0 C 85 % 94 % 1015,9 hPa 0,0 l/m 4,7 km/h (1 Bft) W-SW 247 0 min 10,8 C 13,1 C 6,0 km/h (2 Bft)
30.12.2021 17:15 13,3 C 10,7 C 11,7 C 13,2 C 13,1 C 0,0 C 85 % 94 % 1015,9 hPa 0,0 l/m 6,0 km/h (2 Bft) S 180 0 min 10,8 C 13,1 C 10,1 km/h (2 Bft)
30.12.2021 17:20 13,3 C 10,7 C 11,6 C 13,2 C 12,9 C 0,0 C 85 % 94 % 1015,9 hPa 0,0 l/m 6,6 km/h (2 Bft) NW 315 0 min 10,8 C 12,9 C 4,8 km/h (1 Bft)
30.12.2021 17:25 13,3 C 10,7 C 11,6 C 13,2 C 12,7 C 0,0 C 85 % 94 % 1015,9 hPa 0,0 l/m 7,7 km/h (2 Bft) SW 225 0 min 10,8 C 12,7 C 14,8 km/h (3 Bft)
30.12.2021 17:30 13,4 C 10,7 C 11,7 C 13,2 C 12,7 C 0,0 C 85 % 94 % 1016,2 hPa 0,0 l/m 8,7 km/h (2 Bft) SW 225 0 min 10,9 C 12,7 C 18,8 km/h (3 Bft)
30.12.2021 17:35 13,5 C 10,7 C 11,8 C 13,2 C 12,7 C 0,0 C 85 % 94 % 1016,2 hPa 0,0 l/m 10,6 km/h (2 Bft) SW 225 0 min 11,0 C 12,7 C 14,3 km/h (3 Bft)
30.12.2021 17:40 13,6 C 10,8 C 12,0 C 13,5 C 13,0 C 0,0 C 85 % 94 % 1016,2 hPa 0,0 l/m 10,9 km/h (2 Bft) S 180 0 min 11,1 C 13,0 C 10,1 km/h (2 Bft)
30.12.2021 17:45 13,6 C 10,7 C 12,1 C 13,5 C 13,1 C 0,0 C 86 % 94 % 1016,2 hPa 0,0 l/m 11,7 km/h (2 Bft) SW 225 0 min 11,3 C 13,1 C 19,0 km/h (3 Bft)
30.12.2021 17:50 13,7 C 10,8 C 12,1 C 13,5 C 12,8 C 0,0 C 86 % 94 % 1016,4 hPa 0,0 l/m 12,1 km/h (2 Bft) SW 225 0 min 11,4 C 12,8 C 13,7 km/h (3 Bft)
30.12.2021 17:55 13,4 C 10,9 C 11,9 C 13,2 C 12,3 C 0,0 C 87 % 94 % 1016,4 hPa 0,0 l/m 11,6 km/h (2 Bft) W-SW 247 0 min 11,3 C 12,3 C 23,8 km/h (4 Bft)
30.12.2021 18:00 13,3 C 10,9 C 11,8 C 13,0 C 12,3 C 0,0 C 87 % 94 % 1016,4 hPa 0,0 l/m 10,1 km/h (2 Bft) SW 225 0 min 11,2 C 12,3 C 7,1 km/h (2 Bft)
30.12.2021 18:05 13,2 C 10,8 C 11,7 C 12,9 C 12,2 C 0,0 C 87 % 94 % 1016,4 hPa 0,0 l/m 8,4 km/h (2 Bft) W-SW 247 0 min 11,1 C 12,2 C 8,7 km/h (2 Bft)
30.12.2021 18:10 13,3 C 10,9 C 11,6 C 12,9 C 12,2 C 0,0 C 87 % 94 % 1017,2 hPa 0,0 l/m 8,2 km/h (2 Bft) SW 225 0 min 11,2 C 12,2 C 8,2 km/h (2 Bft)
30.12.2021 18:15 13,1 C 10,9 C 11,5 C 12,9 C 12,4 C 0,0 C 87 % 94 % 1017,2 hPa 0,0 l/m 6,6 km/h (2 Bft) SW 225 0 min 11,0 C 12,4 C 9,2 km/h (2 Bft)
30.12.2021 18:20 13,1 C 10,9 C 11,4 C 12,9 C 12,4 C 0,0 C 87 % 94 % 1017,2 hPa 0,0 l/m 5,6 km/h (1 Bft) SW 225 0 min 11,0 C 12,4 C 4,7 km/h (1 Bft)
30.12.2021 18:25 12,9 C 10,9 C 11,3 C 12,7 C 12,3 C 0,0 C 87 % 94 % 1017,2 hPa 0,0 l/m 4,5 km/h (1 Bft) SW 225 0 min 10,8 C 12,3 C 5,6 km/h (1 Bft)
30.12.2021 18:30 12,8 C 10,9 C 11,3 C 12,6 C 12,2 C 0,0 C 87 % 94 % 1016,6 hPa 0,0 l/m 3,7 km/h (1 Bft) NW 315 0 min 10,7 C 12,2 C 2,7 km/h (1 Bft)
30.12.2021 18:35 12,7 C 10,9 C 11,2 C 12,5 C 12,1 C 0,0 C 87 % 94 % 1016,6 hPa 0,0 l/m 3,7 km/h (1 Bft) SW 225 0 min 10,6 C 12,1 C 3,9 km/h (1 Bft)
30.12.2021 18:40 12,7 C 10,9 C 11,1 C 12,5 C 12,2 C 0,0 C 87 % 95 % 1016,6 hPa 0,0 l/m 5,1 km/h (1 Bft) W-SW 247 0 min 10,6 C 12,2 C 8,7 km/h (2 Bft)
30.12.2021 18:45 12,7 C 10,9 C 11,2 C 12,4 C 11,9 C 0,0 C 87 % 95 % 1016,6 hPa 0,0 l/m 6,6 km/h (2 Bft) W-SW 247 0 min 10,6 C 11,9 C 11,1 km/h (2 Bft)
30.12.2021 18:50 12,8 C 10,9 C 11,2 C 12,6 C 12,1 C 0,0 C 87 % 95 % 1016,8 hPa 0,0 l/m 7,1 km/h (2 Bft) W-SW 247 0 min 10,7 C 12,1 C 4,8 km/h (1 Bft)
30.12.2021 18:55 12,8 C 10,9 C 11,2 C 12,6 C 12,2 C 0,0 C 87 % 95 % 1016,8 hPa 0,0 l/m 6,6 km/h (2 Bft) W-SW 247 0 min 10,7 C 12,2 C 5,5 km/h (1 Bft)
30.12.2021 19:00 12,7 C 10,9 C 11,2 C 12,6 C 12,4 C 0,0 C 87 % 95 % 1016,8 hPa 0,0 l/m 6,3 km/h (2 Bft) W-SW 247 0 min 10,6 C 12,4 C 9,2 km/h (2 Bft)
30.12.2021 19:05 12,8 C 10,9 C 11,3 C 12,7 C 12,4 C 0,0 C 87 % 95 % 1016,8 hPa 0,0 l/m 6,6 km/h (2 Bft) S 180 0 min 10,7 C 12,4 C 6,4 km/h (2 Bft)
30.12.2021 19:10 12,7 C 10,9 C 11,3 C 12,7 C 12,7 C 0,0 C 86 % 94 % 1016,9 hPa 0,0 l/m 5,1 km/h (1 Bft) O-NO 67 0 min 10,4 C 12,7 C 2,4 km/h (1 Bft)
30.12.2021 19:15 12,7 C 10,9 C 11,3 C 12,6 C 12,5 C 0,0 C 86 % 94 % 1016,9 hPa 0,0 l/m 3,7 km/h (1 Bft) SO 135 0 min 10,4 C 12,5 C 4,5 km/h (1 Bft)
30.12.2021 19:20 12,7 C 10,9 C 11,3 C 12,6 C 12,5 C 0,0 C 86 % 94 % 1016,9 hPa 0,0 l/m 3,4 km/h (1 Bft) W-SW 247 0 min 10,4 C 12,5 C 5,5 km/h (1 Bft)
30.12.2021 19:25 12,5 C 11,0 C 11,3 C 12,5 C 12,5 C 0,0 C 86 % 94 % 1016,9 hPa 0,0 l/m 2,7 km/h (1 Bft) SW 225 0 min 10,2 C 12,5 C 3,7 km/h (1 Bft)
30.12.2021 19:30 12,5 C 11,0 C 11,3 C 12,5 C 12,5 C 0,0 C 86 % 94 % 1016,9 hPa 0,0 l/m 3,5 km/h (1 Bft) NW 315 0 min 10,2 C 12,5 C 8,0 km/h (2 Bft)
30.12.2021 19:35 12,6 C 11,0 C 11,3 C 12,7 C 12,7 C 0,1 C 86 % 94 % 1016,9 hPa 0,0 l/m 4,8 km/h (1 Bft) SW 225 0 min 10,3 C 12,7 C 4,5 km/h (1 Bft)
30.12.2021 19:40 12,7 C 11,0 C 11,4 C 12,8 C 12,8 C 0,1 C 86 % 94 % 1016,9 hPa 0,0 l/m 5,3 km/h (1 Bft) SW 225 0 min 10,4 C 12,8 C 8,0 km/h (2 Bft)
30.12.2021 19:45 12,6 C 11,0 C 11,4 C 12,9 C 12,9 C 0,3 C 86 % 94 % 1016,9 hPa 0,0 l/m 5,8 km/h (2 Bft) SW 225 0 min 10,3 C 12,9 C 8,0 km/h (2 Bft)
30.12.2021 19:50 12,7 C 11,0 C 11,3 C 12,8 C 12,8 C 0,1 C 86 % 94 % 1017,1 hPa 0,0 l/m 5,8 km/h (2 Bft) SW 225 0 min 10,4 C 12,8 C 9,0 km/h (2 Bft)
30.12.2021 19:55 12,7 C 11,0 C 11,3 C 12,7 C 12,7 C 0,0 C 86 % 94 % 1017,1 hPa 0,0 l/m 5,8 km/h (2 Bft) W-SW 247 0 min 10,4 C 12,7 C 7,4 km/h (2 Bft)
30.12.2021 20:00 12,7 C 11,0 C 11,3 C 12,7 C 12,7 C 0,0 C 86 % 94 % 1017,1 hPa 0,0 l/m 5,8 km/h (2 Bft) W-SW 247 0 min 10,4 C 12,7 C 4,2 km/h (1 Bft)
30.12.2021 20:05 12,7 C 11,0 C 11,3 C 12,8 C 12,8 C 0,1 C 86 % 94 % 1017,1 hPa 0,0 l/m 4,5 km/h (1 Bft) SW 225 0 min 10,4 C 12,8 C 3,1 km/h (1 Bft)
30.12.2021 20:10 12,7 C 11,0 C 11,3 C 12,8 C 12,8 C 0,1 C 86 % 94 % 1017,1 hPa 0,0 l/m 3,9 km/h (1 Bft) S-SW 202 0 min 10,4 C 12,8 C 5,6 km/h (1 Bft)
30.12.2021 20:15 12,6 C 11,0 C 11,3 C 12,8 C 12,8 C 0,2 C 86 % 94 % 1017,1 hPa 0,0 l/m 4,2 km/h (1 Bft) S-SO 157 0 min 10,3 C 12,8 C 6,6 km/h (2 Bft)
30.12.2021 20:20 12,7 C 11,1 C 11,3 C 12,8 C 12,8 C 0,1 C 86 % 94 % 1017,1 hPa 0,0 l/m 5,0 km/h (1 Bft) SW 225 0 min 10,4 C 12,8 C 7,9 km/h (2 Bft)
30.12.2021 20:25 12,7 C 11,1 C 11,3 C 12,9 C 12,9 C 0,2 C 86 % 94 % 1017,1 hPa 0,0 l/m 5,5 km/h (1 Bft) SW 225 0 min 10,4 C 12,9 C 7,7 km/h (2 Bft)
30.12.2021 20:30 12,7 C 11,1 C 11,4 C 12,9 C 12,9 C 0,2 C 86 % 94 % 1017,6 hPa 0,0 l/m 6,1 km/h (2 Bft) SW 225 0 min 10,4 C 12,9 C 10,5 km/h (2 Bft)
30.12.2021 20:35 12,9 C 11,1 C 11,5 C 12,9 C 12,8 C 0,0 C 86 % 94 % 1017,6 hPa 0,0 l/m 7,2 km/h (2 Bft) SW 225 0 min 10,6 C 12,8 C 8,2 km/h (2 Bft)
30.12.2021 20:40 12,9 C 11,1 C 11,5 C 12,9 C 12,9 C 0,0 C 86 % 94 % 1017,6 hPa 0,0 l/m 6,8 km/h (2 Bft) SW 225 0 min 10,6 C 12,9 C 11,3 km/h (2 Bft)
30.12.2021 20:45 12,9 C 11,1 C 11,5 C 13,1 C 13,1 C 0,2 C 85 % 94 % 1017,6 hPa 0,0 l/m 6,1 km/h (2 Bft) S-SW 202 0 min 10,4 C 13,1 C 6,9 km/h (2 Bft)
30.12.2021 20:50 12,8 C 11,1 C 11,5 C 13,1 C 13,1 C 0,3 C 85 % 94 % 1017,8 hPa 0,0 l/m 6,1 km/h (2 Bft) S-SW 202 0 min 10,3 C 13,1 C 6,8 km/h (2 Bft)
30.12.2021 20:55 12,9 C 11,1 C 11,5 C 13,1 C 13,1 C 0,2 C 85 % 94 % 1017,8 hPa 0,0 l/m 6,0 km/h (2 Bft) SW 225 0 min 10,4 C 13,1 C 6,8 km/h (2 Bft)
30.12.2021 21:00 12,9 C 11,1 C 11,5 C 13,1 C 13,1 C 0,2 C 85 % 94 % 1017,8 hPa 0,0 l/m 6,0 km/h (2 Bft) S 180 0 min 10,4 C 13,1 C 6,6 km/h (2 Bft)
30.12.2021 21:05 12,9 C 11,1 C 11,5 C 13,1 C 13,1 C 0,2 C 85 % 94 % 1017,8 hPa 0,0 l/m 5,6 km/h (1 Bft) S 180 0 min 10,4 C 13,1 C 9,7 km/h (2 Bft)
30.12.2021 21:10 12,9 C 11,1 C 11,5 C 13,1 C 13,1 C 0,2 C 85 % 94 % 1018,2 hPa 0,0 l/m 5,1 km/h (1 Bft) SW 225 0 min 10,4 C 13,1 C 4,0 km/h (1 Bft)
30.12.2021 21:15 12,8 C 11,1 C 11,5 C 13,1 C 13,1 C 0,3 C 85 % 94 % 1018,2 hPa 0,0 l/m 4,7 km/h (1 Bft) SW 225 0 min 10,3 C 13,1 C 5,0 km/h (1 Bft)
30.12.2021 21:20 12,8 C 11,1 C 11,5 C 13,1 C 13,1 C 0,3 C 85 % 94 % 1018,2 hPa 0,0 l/m 4,5 km/h (1 Bft) W-SW 247 0 min 10,3 C 13,1 C 4,3 km/h (1 Bft)
30.12.2021 21:25 12,8 C 11,1 C 11,6 C 13,1 C 13,1 C 0,3 C 85 % 94 % 1018,2 hPa 0,0 l/m 4,3 km/h (1 Bft) S-SW 202 0 min 10,3 C 13,1 C 3,1 km/h (1 Bft)
30.12.2021 21:30 12,8 C 11,1 C 11,6 C 13,1 C 13,1 C 0,3 C 85 % 94 % 1018,0 hPa 0,0 l/m 4,0 km/h (1 Bft) SW 225 0 min 10,3 C 13,1 C 5,5 km/h (1 Bft)
30.12.2021 21:35 12,7 C 11,2 C 11,6 C 13,1 C 13,1 C 0,4 C 85 % 94 % 1018,0 hPa 0,0 l/m 4,3 km/h (1 Bft) S-SO 157 0 min 10,2 C 13,1 C 5,8 km/h (2 Bft)
30.12.2021 21:40 12,7 C 11,2 C 11,6 C 13,1 C 13,1 C 0,4 C 85 % 94 % 1018,0 hPa 0,0 l/m 3,9 km/h (1 Bft) SW 225 0 min 10,2 C 13,1 C 3,1 km/h (1 Bft)
30.12.2021 21:45 12,7 C 11,2 C 11,6 C 13,1 C 13,1 C 0,4 C 85 % 93 % 1018,0 hPa 0,0 l/m 3,9 km/h (1 Bft) W-SW 247 0 min 10,2 C 13,1 C 8,4 km/h (2 Bft)
30.12.2021 21:50 12,8 C 11,2 C 11,6 C 13,1 C 13,1 C 0,3 C 85 % 93 % 1018,0 hPa 0,0 l/m 4,0 km/h (1 Bft) SW 225 0 min 10,3 C 13,1 C 2,7 km/h (1 Bft)
30.12.2021 21:55 12,8 C 11,2 C 11,6 C 13,1 C 13,1 C 0,3 C 85 % 93 % 1018,0 hPa 0,0 l/m 4,8 km/h (1 Bft) SW 225 0 min 10,3 C 13,1 C 6,4 km/h (2 Bft)
30.12.2021 22:00 12,8 C 11,2 C 11,6 C 13,1 C 13,1 C 0,3 C 85 % 94 % 1018,0 hPa 0,0 l/m 5,8 km/h (2 Bft) S-SW 202 0 min 10,3 C 13,1 C 11,9 km/h (2 Bft)
30.12.2021 22:05 12,9 C 11,2 C 11,6 C 12,8 C 12,7 C 0,0 C 85 % 93 % 1018,0 hPa 0,0 l/m 6,6 km/h (2 Bft) W-SW 247 0 min 10,4 C 12,7 C 9,5 km/h (2 Bft)
30.12.2021 22:10 12,9 C 11,2 C 11,6 C 12,8 C 12,5 C 0,0 C 85 % 93 % 1018,1 hPa 0,0 l/m 6,6 km/h (2 Bft) W-SW 247 0 min 10,4 C 12,5 C 10,1 km/h (2 Bft)
30.12.2021 22:15 12,9 C 11,2 C 11,5 C 12,9 C 12,8 C 0,0 C 85 % 93 % 1018,1 hPa 0,0 l/m 6,0 km/h (2 Bft) SW 225 0 min 10,4 C 12,8 C 7,6 km/h (2 Bft)
30.12.2021 22:20 12,8 C 11,2 C 11,6 C 13,0 C 13,0 C 0,2 C 85 % 93 % 1018,1 hPa 0,0 l/m 5,6 km/h (1 Bft) SO 135 0 min 10,3 C 13,0 C 7,4 km/h (2 Bft)
30.12.2021 22:25 12,9 C 11,2 C 11,6 C 13,1 C 13,1 C 0,2 C 85 % 93 % 1018,1 hPa 0,0 l/m 5,3 km/h (1 Bft) SW 225 0 min 10,4 C 13,1 C 6,3 km/h (2 Bft)
30.12.2021 22:30 12,8 C 11,2 C 11,6 C 13,2 C 13,2 C 0,4 C 85 % 93 % 1018,1 hPa 0,0 l/m 5,5 km/h (1 Bft) SW 225 0 min 10,3 C 13,2 C 6,6 km/h (2 Bft)
30.12.2021 22:35 12,9 C 11,2 C 11,6 C 13,3 C 13,3 C 0,4 C 84 % 93 % 1018,1 hPa 0,0 l/m 5,8 km/h (2 Bft) S-SW 202 0 min 10,3 C 13,3 C 9,2 km/h (2 Bft)
30.12.2021 22:40 12,9 C 11,2 C 11,6 C 13,2 C 13,2 C 0,3 C 84 % 93 % 1018,1 hPa 0,0 l/m 6,0 km/h (2 Bft) SW 225 0 min 10,3 C 13,2 C 6,6 km/h (2 Bft)
30.12.2021 22:45 13,0 C 11,2 C 11,7 C 13,2 C 13,2 C 0,2 C 84 % 93 % 1018,1 hPa 0,0 l/m 6,9 km/h (2 Bft) SW 225 0 min 10,4 C 13,2 C 11,7 km/h (2 Bft)
30.12.2021 22:50 13,1 C 11,2 C 11,7 C 13,2 C 13,0 C 0,1 C 84 % 93 % 1018,3 hPa 0,0 l/m 7,7 km/h (2 Bft) S-SW 202 0 min 10,5 C 13,0 C 8,5 km/h (2 Bft)
30.12.2021 22:55 13,0 C 11,3 C 11,7 C 13,3 C 13,3 C 0,3 C 83 % 92 % 1018,3 hPa 0,0 l/m 7,1 km/h (2 Bft) SW 225 0 min 10,2 C 13,3 C 8,7 km/h (2 Bft)
30.12.2021 23:00 13,1 C 11,3 C 11,7 C 13,3 C 13,3 C 0,2 C 83 % 92 % 1018,3 hPa 0,0 l/m 6,9 km/h (2 Bft) S 180 0 min 10,3 C 13,3 C 7,6 km/h (2 Bft)
30.12.2021 23:05 13,1 C 11,3 C 11,7 C 13,2 C 13,2 C 0,1 C 83 % 92 % 1018,3 hPa 0,0 l/m 7,2 km/h (2 Bft) SW 225 0 min 10,3 C 13,2 C 6,0 km/h (2 Bft)
30.12.2021 23:10 13,1 C 11,3 C 11,7 C 13,2 C 13,2 C 0,1 C 83 % 92 % 1018,2 hPa 0,0 l/m 7,4 km/h (2 Bft) SW 225 0 min 10,3 C 13,2 C 9,5 km/h (2 Bft)
30.12.2021 23:15 13,2 C 11,3 C 11,8 C 13,2 C 13,2 C 0,0 C 82 % 92 % 1018,2 hPa 0,0 l/m 7,4 km/h (2 Bft) S 180 0 min 10,2 C 13,2 C 11,1 km/h (2 Bft)
30.12.2021 23:20 13,2 C 11,3 C 11,8 C 13,2 C 13,2 C 0,0 C 82 % 92 % 1018,2 hPa 0,0 l/m 8,0 km/h (2 Bft) W-SW 247 0 min 10,2 C 13,2 C 9,2 km/h (2 Bft)
30.12.2021 23:25 13,2 C 11,3 C 11,9 C 13,4 C 13,3 C 0,2 C 82 % 92 % 1018,2 hPa 0,0 l/m 8,4 km/h (2 Bft) SW 225 0 min 10,2 C 13,3 C 8,7 km/h (2 Bft)
30.12.2021 23:30 13,3 C 11,3 C 11,9 C 13,3 C 13,3 C 0,0 C 82 % 91 % 1018,1 hPa 0,0 l/m 7,2 km/h (2 Bft) SW 225 0 min 10,3 C 13,3 C 11,1 km/h (2 Bft)
30.12.2021 23:35 13,2 C 11,3 C 11,9 C 13,4 C 13,4 C 0,2 C 82 % 91 % 1018,1 hPa 0,0 l/m 6,8 km/h (2 Bft) S 180 0 min 10,2 C 13,4 C 8,4 km/h (2 Bft)
30.12.2021 23:40 13,2 C 11,3 C 11,9 C 13,3 C 13,3 C 0,1 C 82 % 91 % 1018,1 hPa 0,0 l/m 6,6 km/h (2 Bft) S-SO 157 0 min 10,2 C 13,3 C 6,1 km/h (2 Bft)
30.12.2021 23:45 13,2 C 11,3 C 11,9 C 13,5 C 13,5 C 0,3 C 82 % 91 % 1018,1 hPa 0,0 l/m 5,6 km/h (1 Bft) S 180 0 min 10,2 C 13,5 C 5,0 km/h (1 Bft)
30.12.2021 23:50 13,1 C 11,3 C 11,9 C 13,5 C 13,5 C 0,4 C 82 % 90 % 1018,1 hPa 0,0 l/m 6,0 km/h (2 Bft) SW 225 0 min 10,1 C 13,5 C 8,2 km/h (2 Bft)
30.12.2021 23:55 13,1 C 11,3 C 11,9 C 13,4 C 13,4 C 0,3 C 82 % 90 % 1018,1 hPa 0,0 l/m 6,1 km/h (2 Bft) O-NO 67 0 min 10,1 C 13,4 C 9,8 km/h (2 Bft)
_ Min-Zeit 00:45 00:00 00:20 00:00 00:00 00:00 23:15 23:50 01:10 - 00:45 - - - 00:50 00:00 00:45
Minimum _ 6,9 C 8,7 C 6,1 C 7,1 C 6,8 C 0,0 C 82 % 90 % 1010,9 hPa - 0,5 km/h (0 Bft) - - - 5,1 C 6,8 C 0,0 km/h (0 Bft)
_ Max-Zeit 16:30 22:55 15:55 16:00 16:00 03:30 00:45 00:00 22:50 00:40 17:50 - - 15:40 17:50 16:00 17:55
Maximum _ 13,9 C 11,3 C 12,4 C 14,0 C 14,0 C 1,3 C 89 % 95 % 1018,3 hPa 0,7 l/m 12,1 km/h
SW (2 Bft)
- - 5 min 11,4 C 14,0 C 23,8 km/h
W-SW (4 Bft)
Durchschnitt _ 10,7 C 10,0 C 9,8 C 11,0 C 11,0 C 0,3 C 87 % 94 % 1015,1 hPa #2,1 l/m 4,7 km/h (1 Bft) SW - #20 min. 8,6 C 10,9 C 6,4 km/h (2 Bft)
2021 www.wetterstation-wechselburg.de